createdAt,value
2018-06-29T00:02:13.037Z,100.00
2018-06-29T00:04:44.924Z,100.00
2018-06-29T00:07:16.058Z,100.00
2018-06-29T00:09:47.069Z,100.00
2018-06-29T00:12:18.750Z,100.00
2018-06-29T00:14:49.870Z,100.00
2018-06-29T00:17:20.821Z,100.00
2018-06-29T00:19:52.002Z,100.00
2018-06-29T00:22:22.982Z,100.00
2018-06-29T00:24:54.073Z,100.00
2018-06-29T00:27:25.068Z,100.00
2018-06-29T00:29:57.169Z,100.00
2018-06-29T00:32:28.304Z,100.00
2018-06-29T00:34:59.389Z,100.00
2018-06-29T00:37:30.395Z,100.00
2018-06-29T00:40:01.418Z,100.00
2018-06-29T00:42:33.289Z,100.00
2018-06-29T00:45:04.433Z,100.00
2018-06-29T00:47:35.503Z,100.00
2018-06-29T00:50:06.345Z,100.00
2018-06-29T00:52:38.436Z,100.00
2018-06-29T00:55:09.443Z,100.00
2018-06-29T00:57:40.407Z,100.00
2018-06-29T01:00:11.576Z,100.00
2018-06-29T01:02:42.952Z,100.00
2018-06-29T01:05:14.002Z,100.00
2018-06-29T01:07:46.964Z,100.00
2018-06-29T01:10:18.077Z,100.00
2018-06-29T01:12:49.341Z,100.00
2018-06-29T01:15:20.425Z,100.00
2018-06-29T01:17:51.356Z,100.00
2018-06-29T01:20:23.153Z,100.00
2018-06-29T01:22:54.375Z,100.00
2018-06-29T01:25:25.483Z,100.00
2018-06-29T01:27:56.561Z,100.00
2018-06-29T01:30:27.525Z,100.00
2018-06-29T01:32:58.496Z,100.00
2018-06-29T01:35:29.650Z,100.00
2018-06-29T01:38:01.680Z,100.00
2018-06-29T01:40:32.599Z,100.00
2018-06-29T01:43:03.620Z,100.00
2018-06-29T01:45:34.799Z,100.00
2018-06-29T01:48:05.885Z,100.00
2018-06-29T01:50:37.052Z,100.00
2018-06-29T01:53:08.088Z,100.00
2018-06-29T01:55:39.066Z,100.00
2018-06-29T01:58:09.891Z,100.00
2018-06-29T02:00:40.859Z,100.00
2018-06-29T02:03:11.801Z,100.00
2018-06-29T02:05:42.994Z,100.00
2018-06-29T02:08:13.976Z,100.00
2018-06-29T02:10:44.889Z,100.00
2018-06-29T02:13:17.077Z,100.00
2018-06-29T02:15:48.097Z,100.00
2018-06-29T02:18:19.195Z,100.00
2018-06-29T02:20:50.292Z,100.00
2018-06-29T02:23:21.431Z,100.00
2018-06-29T02:25:52.631Z,100.00
2018-06-29T02:28:23.435Z,100.00
2018-06-29T02:30:54.394Z,100.00
2018-06-29T02:33:25.408Z,100.00
2018-06-29T02:35:56.521Z,100.00
2018-06-29T02:38:27.365Z,100.00
2018-06-29T02:40:58.256Z,100.00
2018-06-29T02:43:30.425Z,100.00
2018-06-29T02:46:01.177Z,100.00
2018-06-29T02:48:32.326Z,100.00
2018-06-29T02:51:03.392Z,100.00
2018-06-29T02:53:34.680Z,100.00
2018-06-29T02:56:05.542Z,100.00
2018-06-29T02:58:36.832Z,100.00
2018-06-29T03:01:08.187Z,100.00
2018-06-29T03:03:39.342Z,100.00
2018-06-29T03:06:11.481Z,100.00
2018-06-29T03:08:42.643Z,100.00
2018-06-29T03:11:13.682Z,100.00
2018-06-29T03:13:44.744Z,100.00
2018-06-29T03:16:15.647Z,100.00
2018-06-29T03:18:46.925Z,100.00
2018-06-29T03:21:18.110Z,100.00
2018-06-29T03:23:49.300Z,100.00
2018-06-29T03:26:20.274Z,100.00
2018-06-29T03:28:51.196Z,100.00
2018-06-29T03:31:22.460Z,100.00
2018-06-29T03:33:53.352Z,100.00
2018-06-29T03:36:24.368Z,100.00
2018-06-29T03:38:55.622Z,100.00
2018-06-29T03:41:27.038Z,100.00
2018-06-29T03:43:58.066Z,100.00
2018-06-29T03:46:31.446Z,100.00
2018-06-29T03:49:02.503Z,99.53
2018-06-29T03:51:33.801Z,98.76
2018-06-29T03:54:04.966Z,92.41
2018-06-29T03:56:36.348Z,81.40
2018-06-29T03:59:07.907Z,68.33
2018-06-29T04:01:39.090Z,60.35
2018-06-29T04:04:10.314Z,52.61
2018-06-29T04:06:41.228Z,47.58
2018-06-29T04:09:13.255Z,43.80
2018-06-29T04:11:44.466Z,40.14
2018-06-29T04:14:15.504Z,37.50
2018-06-29T04:16:46.560Z,35.77
2018-06-29T04:19:17.686Z,34.00
2018-06-29T04:21:49.491Z,32.20
2018-06-29T04:24:20.824Z,29.76
2018-06-29T04:26:58.272Z,28.26
2018-06-29T04:29:29.403Z,28.20
2018-06-29T04:32:00.468Z,29.88
2018-06-29T04:34:31.518Z,33.71
2018-06-29T04:37:02.480Z,37.79
2018-06-29T04:39:33.260Z,39.03
2018-06-29T04:42:04.471Z,38.13
2018-06-29T04:44:35.482Z,39.50
2018-06-29T04:47:07.737Z,39.10
2018-06-29T04:49:38.590Z,41.55
2018-06-29T04:52:09.688Z,42.21
2018-06-29T04:54:42.095Z,43.41
2018-06-29T04:57:13.091Z,44.96
2018-06-29T04:59:44.091Z,48.21
2018-06-29T05:02:15.179Z,52.85
2018-06-29T05:04:46.241Z,54.45
2018-06-29T05:07:17.387Z,55.28
2018-06-29T05:09:48.540Z,55.49
2018-06-29T05:12:20.504Z,54.29
2018-06-29T05:14:51.637Z,53.32
2018-06-29T05:17:23.171Z,53.73
2018-06-29T05:19:54.270Z,54.96
2018-06-29T05:22:28.651Z,55.64
2018-06-29T05:24:59.806Z,52.47
2018-06-29T05:27:31.069Z,43.11
2018-06-29T05:30:02.138Z,38.40
2018-06-29T05:32:33.227Z,38.58
2018-06-29T05:35:05.519Z,34.86
2018-06-29T05:37:36.619Z,30.06
2018-06-29T05:40:07.711Z,29.07
2018-06-29T05:42:38.712Z,28.24
2018-06-29T05:45:10.726Z,26.30
2018-06-29T05:47:42.025Z,25.80
2018-06-29T05:50:13.216Z,25.44
2018-06-29T05:52:44.335Z,24.66
2018-06-29T05:55:15.518Z,22.89
2018-06-29T05:57:46.501Z,24.05
2018-06-29T06:00:17.627Z,22.77
2018-06-29T06:02:48.885Z,22.92
2018-06-29T06:05:20.365Z,22.07
2018-06-29T06:07:51.414Z,22.22
2018-06-29T06:10:22.602Z,23.97
2018-06-29T06:12:54.718Z,23.20
2018-06-29T06:15:25.758Z,23.52
2018-06-29T06:17:57.707Z,23.84
2018-06-29T06:20:29.917Z,24.11
2018-06-29T06:23:11.444Z,24.90
2018-06-29T06:25:42.734Z,25.12
2018-06-29T06:28:13.930Z,25.57
2018-06-29T06:30:45.083Z,23.39
2018-06-29T06:33:15.998Z,23.61
2018-06-29T06:35:47.893Z,25.82
2018-06-29T06:38:19.178Z,24.91
2018-06-29T06:40:50.247Z,23.33
2018-06-29T06:43:21.653Z,23.53
2018-06-29T06:45:52.829Z,23.41
2018-06-29T06:48:24.695Z,22.61
2018-06-29T06:50:56.165Z,21.37
2018-06-29T06:53:27.196Z,22.22
2018-06-29T06:55:58.363Z,21.02
2018-06-29T06:58:29.619Z,20.24
2018-06-29T07:01:00.592Z,20.60
2018-06-29T07:03:31.839Z,20.89
2018-06-29T07:06:03.242Z,21.39
2018-06-29T07:08:34.343Z,21.27
2018-06-29T07:11:05.370Z,20.32
2018-06-29T07:13:36.394Z,19.97
2018-06-29T07:16:08.739Z,21.42
2018-06-29T07:18:39.835Z,21.46
2018-06-29T07:21:10.899Z,22.41
2018-06-29T07:23:42.300Z,21.97
2018-06-29T07:26:13.673Z,21.29
2018-06-29T07:28:45.023Z,21.24
2018-06-29T07:31:16.216Z,22.09
2018-06-29T07:33:47.435Z,22.23
2018-06-29T07:36:18.900Z,23.68
2018-06-29T07:38:50.152Z,23.55
2018-06-29T07:41:21.262Z,26.16
2018-06-29T07:43:52.290Z,26.25
2018-06-29T07:46:23.314Z,25.73
2018-06-29T07:48:54.560Z,25.64
2018-06-29T07:51:25.574Z,30.14
2018-06-29T07:53:56.873Z,28.02
2018-06-29T07:56:28.070Z,29.30
2018-06-29T07:59:00.167Z,27.64
2018-06-29T08:01:31.390Z,27.85
2018-06-29T08:04:03.035Z,27.81
2018-06-29T08:06:34.140Z,27.83
2018-06-29T08:09:07.426Z,29.68
2018-06-29T08:11:38.920Z,33.10
2018-06-29T08:14:09.913Z,34.83
2018-06-29T08:16:41.051Z,34.83
2018-06-29T08:19:12.213Z,36.52
2018-06-29T08:21:43.320Z,41.52
2018-06-29T08:24:15.475Z,46.69
2018-06-29T08:26:46.744Z,48.15
2018-06-29T08:29:17.770Z,50.80
2018-06-29T08:31:48.941Z,53.54
2018-06-29T08:34:19.992Z,53.30
2018-06-29T08:36:50.989Z,53.89
2018-06-29T08:39:22.356Z,55.51
2018-06-29T08:41:55.792Z,57.83
2018-06-29T08:44:27.149Z,56.54
2018-06-29T08:46:58.439Z,58.42
2018-06-29T08:49:29.593Z,60.61
2018-06-29T08:52:00.834Z,59.72
2018-06-29T08:54:31.796Z,61.41
2018-06-29T08:57:02.734Z,62.61
2018-06-29T08:59:33.684Z,63.86
2018-06-29T09:02:04.752Z,62.30
2018-06-29T09:04:35.794Z,62.93
2018-06-29T09:07:07.443Z,61.30
2018-06-29T09:09:38.831Z,61.24
2018-06-29T09:12:09.998Z,61.39
2018-06-29T09:14:40.948Z,62.39
2018-06-29T09:17:12.219Z,60.37
2018-06-29T09:19:43.324Z,59.83
2018-06-29T09:22:14.466Z,60.29
2018-06-29T09:24:45.737Z,60.88
2018-06-29T09:27:16.855Z,60.42
2018-06-29T09:29:48.648Z,60.09
2018-06-29T09:32:20.272Z,60.38
2018-06-29T09:34:51.630Z,59.69
2018-06-29T09:37:22.668Z,60.82
2018-06-29T09:39:53.943Z,61.32
2018-06-29T09:42:24.999Z,60.26
2018-06-29T09:44:56.450Z,60.22
2018-06-29T09:47:27.590Z,60.88
2018-06-29T09:49:58.997Z,61.84
2018-06-29T09:52:31.062Z,63.05
2018-06-29T09:55:02.123Z,67.54
2018-06-29T09:57:33.321Z,70.22
2018-06-29T10:00:04.564Z,71.01
2018-06-29T10:02:39.276Z,72.40
2018-06-29T10:05:07.084Z,68.58
2018-06-29T10:07:38.506Z,67.15
2018-06-29T10:10:09.814Z,63.34
2018-06-29T10:12:41.074Z,61.35
2018-06-29T10:15:12.690Z,59.86
2018-06-29T10:17:43.795Z,61.13
2018-06-29T10:20:15.038Z,62.36
2018-06-29T10:22:46.224Z,63.04
2018-06-29T10:25:17.260Z,63.04
2018-06-29T10:27:48.578Z,63.57
2018-06-29T10:30:19.758Z,63.95
2018-06-29T10:32:50.980Z,65.82
2018-06-29T10:35:22.213Z,65.80
2018-06-29T10:37:53.501Z,66.62
2018-06-29T10:40:24.865Z,66.22
2018-06-29T10:42:56.011Z,69.25
2018-06-29T10:45:27.475Z,65.41
2018-06-29T10:47:58.414Z,67.43
2018-06-29T10:50:29.616Z,66.91
2018-06-29T10:53:00.787Z,64.11
2018-06-29T10:55:31.847Z,60.98
2018-06-29T10:58:03.818Z,60.58
2018-06-29T11:00:34.939Z,60.23
2018-06-29T11:03:06.141Z,59.40
2018-06-29T11:05:37.611Z,57.84
2018-06-29T11:08:08.790Z,59.86
2018-06-29T11:10:39.903Z,62.25
2018-06-29T11:13:12.158Z,64.99
2018-06-29T11:15:43.261Z,65.39
2018-06-29T11:18:14.470Z,65.20
2018-06-29T11:20:45.883Z,65.71
2018-06-29T11:23:18.095Z,66.39
2018-06-29T11:25:49.534Z,67.47
2018-06-29T11:28:20.811Z,67.06
2018-06-29T11:30:51.994Z,65.37
2018-06-29T11:33:23.798Z,66.98
2018-06-29T11:35:54.967Z,67.42
2018-06-29T11:38:26.405Z,68.21
2018-06-29T11:40:57.535Z,68.79
2018-06-29T11:43:30.339Z,68.91
2018-06-29T11:46:01.629Z,66.87
2018-06-29T11:48:32.864Z,67.88
2018-06-29T11:51:04.113Z,70.25
2018-06-29T11:53:35.519Z,68.28
2018-06-29T11:56:06.840Z,67.71
2018-06-29T11:58:38.242Z,66.63
2018-06-29T12:01:10.807Z,70.16
2018-06-29T12:03:41.904Z,70.93
2018-06-29T12:06:13.846Z,72.36
2018-06-29T12:08:45.187Z,71.39
2018-06-29T12:11:16.278Z,74.10
2018-06-29T12:13:47.597Z,75.68
2018-06-29T12:16:19.176Z,74.77
2018-06-29T12:18:50.291Z,74.62
2018-06-29T12:21:22.671Z,76.66
2018-06-29T12:23:54.343Z,77.82
2018-06-29T12:26:25.550Z,77.83
2018-06-29T12:28:57.472Z,77.88
2018-06-29T12:31:30.581Z,77.30
2018-06-29T12:34:02.925Z,76.64
2018-06-29T12:36:34.145Z,75.75
2018-06-29T12:39:06.888Z,76.87
2018-06-29T12:41:38.368Z,78.36
2018-06-29T12:44:09.478Z,81.39
2018-06-29T12:46:41.774Z,79.14
2018-06-29T12:49:13.113Z,79.38
2018-06-29T12:51:44.320Z,80.69
2018-06-29T12:54:16.618Z,82.09
2018-06-29T12:56:48.024Z,84.13
2018-06-29T12:59:19.022Z,83.49
2018-06-29T13:01:50.058Z,82.56
2018-06-29T13:04:21.010Z,85.47
2018-06-29T13:06:52.127Z,86.40
2018-06-29T13:09:23.534Z,85.83
2018-06-29T13:11:56.044Z,87.76
2018-06-29T13:14:27.428Z,86.57
2018-06-29T13:16:58.644Z,84.23
2018-06-29T13:19:29.806Z,85.11
2018-06-29T13:22:01.382Z,86.41
2018-06-29T13:24:32.817Z,85.51
2018-06-29T13:27:03.735Z,84.33
2018-06-29T13:29:35.017Z,84.23
2018-06-29T13:32:06.286Z,84.73
2018-06-29T13:34:37.621Z,84.78
2018-06-29T13:37:09.222Z,81.82
2018-06-29T13:39:40.588Z,78.04
2018-06-29T13:42:12.043Z,78.52
2018-06-29T13:44:44.269Z,77.78
2018-06-29T13:47:15.409Z,78.69
2018-06-29T13:49:46.618Z,76.34
2018-06-29T13:52:18.226Z,74.64
2018-06-29T13:54:50.729Z,72.77
2018-06-29T13:57:22.192Z,73.20
2018-06-29T13:59:54.609Z,73.97
2018-06-29T14:02:25.962Z,73.90
2018-06-29T14:04:57.229Z,75.68
2018-06-29T14:07:28.327Z,78.39
2018-06-29T14:09:59.691Z,79.22
2018-06-29T14:12:31.320Z,80.77
2018-06-29T14:15:02.655Z,81.76
2018-06-29T14:17:33.904Z,80.27
2018-06-29T14:20:05.199Z,80.31
2018-06-29T14:22:36.639Z,79.92
2018-06-29T14:25:08.061Z,80.37
2018-06-29T14:27:39.374Z,80.28
2018-06-29T14:30:10.893Z,81.00
2018-06-29T14:32:42.846Z,81.07
2018-06-29T14:35:15.483Z,82.30
2018-06-29T14:37:46.797Z,81.05
2018-06-29T14:40:18.408Z,81.21
2018-06-29T14:42:49.236Z,80.70
2018-06-29T14:45:20.427Z,82.64
2018-06-29T14:47:51.550Z,84.15
2018-06-29T14:50:22.711Z,84.21
2018-06-29T14:52:54.638Z,84.89
2018-06-29T14:55:25.754Z,86.64
2018-06-29T14:57:58.317Z,86.78
2018-06-29T15:00:30.137Z,86.42
2018-06-29T15:03:02.550Z,86.75
2018-06-29T15:05:33.619Z,88.33
2018-06-29T15:08:06.033Z,89.64
2018-06-29T15:10:37.508Z,91.58
2018-06-29T15:13:09.315Z,91.65
2018-06-29T15:15:40.819Z,92.35
2018-06-29T15:18:12.684Z,92.77
2018-06-29T15:20:43.877Z,92.45
2018-06-29T15:23:15.067Z,95.61
2018-06-29T15:25:46.895Z,93.01
2018-06-29T15:28:18.886Z,94.22
2018-06-29T15:30:49.976Z,90.99
2018-06-29T15:33:21.972Z,91.67
2018-06-29T15:35:55.018Z,88.07
2018-06-29T15:38:26.164Z,82.90
2018-06-29T15:40:58.360Z,83.96
2018-06-29T15:43:29.904Z,86.90
2018-06-29T15:46:01.445Z,87.72
2018-06-29T15:48:33.456Z,87.45
2018-06-29T15:51:04.851Z,88.91
2018-06-29T15:53:36.140Z,87.12
2018-06-29T15:56:13.106Z,84.35
2018-06-29T15:58:44.241Z,82.20
2018-06-29T16:01:17.010Z,81.17
2018-06-29T16:03:49.941Z,80.73
2018-06-29T16:06:21.668Z,75.99
2018-06-29T16:08:52.781Z,76.39
2018-06-29T16:11:24.886Z,73.20
2018-06-29T16:13:55.929Z,73.68
2018-06-29T16:16:27.868Z,78.20
2018-06-29T16:18:59.079Z,81.72
2018-06-29T16:21:30.411Z,84.51
2018-06-29T16:24:01.673Z,86.10
2018-06-29T16:26:32.814Z,85.92
2018-06-29T16:29:04.060Z,87.00
2018-06-29T16:31:35.441Z,86.28
2018-06-29T16:34:07.025Z,86.70
2018-06-29T16:36:38.330Z,86.59
2018-06-29T16:39:12.759Z,87.45
2018-06-29T16:41:43.760Z,87.29
2018-06-29T16:44:15.250Z,87.94
2018-06-29T16:46:46.721Z,89.27
2018-06-29T16:49:18.659Z,91.40
2018-06-29T16:51:49.843Z,91.91
2018-06-29T16:54:21.769Z,94.53
2018-06-29T16:56:52.870Z,92.98
2018-06-29T17:03:22.986Z,94.14
2018-06-29T17:05:54.120Z,93.72
2018-06-29T17:08:25.337Z,93.23
2018-06-29T17:10:56.831Z,93.34
2018-06-29T17:13:28.069Z,94.00
2018-06-29T17:15:59.242Z,93.73
2018-06-29T17:18:30.372Z,93.04
2018-06-29T17:21:01.326Z,93.07
2018-06-29T17:23:32.244Z,93.53
2018-06-29T17:26:03.518Z,94.05
2018-06-29T17:28:34.908Z,95.41
2018-06-29T17:31:05.918Z,96.32
2018-06-29T17:33:36.992Z,95.70
2018-06-29T17:36:08.104Z,95.40
2018-06-29T17:38:39.576Z,95.01
2018-06-29T17:41:11.236Z,94.03
2018-06-29T17:43:42.988Z,93.99
2018-06-29T17:46:15.436Z,94.42
2018-06-29T17:48:46.730Z,95.74
2018-06-29T17:51:18.065Z,95.09
2018-06-29T17:53:49.367Z,95.43
2018-06-29T17:56:20.567Z,95.62
2018-06-29T17:58:52.260Z,96.14
2018-06-29T18:01:23.567Z,97.05
2018-06-29T18:03:55.306Z,97.06
2018-06-29T18:06:26.752Z,97.18
2018-06-29T18:08:57.926Z,97.32
2018-06-29T18:11:29.113Z,96.62
2018-06-29T18:14:02.138Z,96.68
2018-06-29T18:16:33.442Z,97.23
2018-06-29T18:19:05.106Z,96.20
2018-06-29T18:21:36.147Z,96.51
2018-06-29T18:24:08.351Z,96.25
2018-06-29T18:26:39.665Z,96.74
2018-06-29T18:29:12.143Z,97.65
2018-06-29T18:31:43.595Z,97.03
2018-06-29T18:34:15.141Z,96.00
2018-06-29T18:36:47.796Z,97.55
2018-06-29T18:39:20.432Z,97.05
2018-06-29T18:41:52.378Z,96.79
2018-06-29T18:44:23.247Z,96.30
2018-06-29T18:46:54.761Z,97.00
2018-06-29T18:49:25.809Z,96.83
2018-06-29T18:51:56.885Z,97.41
2018-06-29T18:54:28.374Z,97.92
2018-06-29T18:57:00.234Z,98.32
2018-06-29T18:59:31.556Z,97.81
2018-06-29T19:02:03.185Z,98.20
2018-06-29T19:04:34.629Z,98.81
2018-06-29T19:07:06.160Z,98.61
2018-06-29T19:09:37.340Z,97.64
2018-06-29T19:12:08.440Z,97.24
2018-06-29T19:14:39.481Z,97.25
2018-06-29T19:17:10.918Z,96.72
2018-06-29T19:19:41.919Z,96.78
2018-06-29T19:22:13.275Z,96.96
2018-06-29T19:24:44.827Z,97.00
2018-06-29T19:27:16.324Z,96.69
2018-06-29T19:29:48.729Z,95.52
2018-06-29T19:32:20.205Z,95.50
2018-06-29T19:34:51.725Z,95.97
2018-06-29T19:37:23.317Z,95.15
2018-06-29T19:39:54.619Z,95.73
2018-06-29T19:42:25.575Z,94.89
2018-06-29T19:44:56.748Z,95.84
2018-06-29T19:47:27.986Z,95.53
2018-06-29T19:49:59.339Z,95.12
2018-06-29T19:52:30.765Z,93.62
2018-06-29T19:55:01.782Z,94.02
2018-06-29T19:57:33.055Z,93.95
2018-06-29T20:00:04.261Z,93.53
2018-06-29T20:02:35.426Z,94.72
2018-06-29T20:05:13.436Z,94.69
2018-06-29T20:07:44.691Z,94.22
2018-06-29T20:10:16.619Z,94.82
2018-06-29T20:12:47.489Z,95.23
2018-06-29T20:15:18.405Z,95.20
2018-06-29T20:17:49.519Z,95.52
2018-06-29T20:20:20.748Z,97.10
2018-06-29T20:22:51.917Z,97.93
2018-06-29T20:25:23.657Z,99.74
2018-06-29T20:27:55.023Z,100.00
2018-06-29T20:30:26.147Z,100.00
2018-06-29T20:32:57.112Z,100.00
2018-06-29T20:35:28.057Z,100.00
2018-06-29T20:37:59.302Z,100.00
2018-06-29T20:40:30.409Z,100.00
2018-06-29T20:43:01.509Z,100.00
2018-06-29T20:45:33.445Z,100.00
2018-06-29T20:48:04.517Z,100.00
2018-06-29T20:50:38.047Z,100.00
2018-06-29T20:53:10.753Z,100.00
2018-06-29T20:55:41.906Z,100.00
2018-06-29T20:58:13.070Z,100.00
2018-06-29T21:00:44.885Z,100.00
2018-06-29T21:03:21.180Z,99.91
2018-06-29T21:05:52.419Z,100.00
2018-06-29T21:08:25.629Z,99.80
2018-06-29T21:10:56.668Z,99.96
2018-06-29T21:13:27.888Z,99.77
2018-06-29T21:15:58.929Z,100.00
2018-06-29T21:18:30.341Z,100.00
2018-06-29T21:21:01.554Z,100.00
2018-06-29T21:23:33.228Z,100.00
2018-06-29T21:26:04.372Z,100.00
2018-06-29T21:28:35.359Z,100.00
2018-06-29T21:31:06.414Z,100.00
2018-06-29T21:33:38.142Z,100.00
2018-06-29T21:36:09.194Z,100.00
2018-06-29T21:38:40.445Z,100.00
2018-06-29T21:41:11.525Z,100.00
2018-06-29T21:43:42.554Z,100.00
2018-06-29T21:46:13.611Z,100.00
2018-06-29T21:48:44.703Z,100.00
2018-06-29T21:51:15.727Z,100.00
2018-06-29T21:53:47.431Z,100.00
2018-06-29T21:56:19.394Z,100.00
2018-06-29T21:58:51.355Z,100.00
2018-06-29T22:01:22.388Z,100.00
2018-06-29T22:03:53.525Z,100.00
2018-06-29T22:06:24.641Z,100.00
2018-06-29T22:08:55.629Z,100.00
2018-06-29T22:11:27.362Z,100.00
2018-06-29T22:13:58.502Z,100.00
2018-06-29T22:16:29.542Z,100.00
2018-06-29T22:19:00.689Z,100.00
2018-06-29T22:21:33.287Z,100.00
2018-06-29T22:24:04.298Z,100.00
2018-06-29T22:26:35.362Z,100.00
2018-06-29T22:29:06.503Z,100.00
2018-06-29T22:31:37.684Z,100.00
2018-06-29T22:34:08.699Z,100.00
2018-06-29T22:36:40.308Z,100.00
2018-06-29T22:39:12.522Z,100.00
2018-06-29T22:41:44.412Z,100.00
2018-06-29T22:44:15.674Z,100.00
2018-06-29T22:46:46.978Z,100.00
2018-06-29T22:49:18.562Z,100.00
2018-06-29T22:51:50.649Z,100.00
2018-06-29T22:54:22.860Z,100.00
2018-06-29T22:56:54.121Z,100.00
2018-06-29T22:59:25.332Z,100.00
2018-06-29T23:01:56.377Z,100.00
2018-06-29T23:04:28.286Z,100.00
2018-06-29T23:06:59.651Z,100.00
2018-06-29T23:09:31.000Z,100.00
2018-06-29T23:12:02.233Z,100.00
2018-06-29T23:14:33.431Z,100.00
2018-06-29T23:17:04.788Z,100.00
2018-06-29T23:19:37.577Z,100.00
2018-06-29T23:22:08.717Z,100.00
2018-06-29T23:24:39.984Z,100.00
2018-06-29T23:27:11.206Z,100.00
2018-06-29T23:29:42.546Z,100.00
2018-06-29T23:32:13.519Z,100.00
2018-06-29T23:34:45.678Z,100.00
2018-06-29T23:37:16.680Z,100.00
2018-06-29T23:39:47.876Z,100.00
2018-06-29T23:42:19.082Z,100.00
2018-06-29T23:44:50.294Z,100.00
2018-06-29T23:47:22.762Z,100.00
2018-06-29T23:49:53.921Z,100.00
2018-06-29T23:52:25.943Z,100.00
2018-06-29T23:54:57.178Z,100.00
2018-06-29T23:57:29.342Z,100.00
